Time;durP1;ratioP1;P1;durP2;ratioP2;P2;SDS_P1;SDS_P2;PMS_P1;PMS_P2;Temp;Humidity;BMP_temperature;BMP_pressure;BME280_temperature;BME280_humidity;BME280_pressure;Samples;Min_cycle;Max_cycle;Signal;HPM_P1;HPM_P2
2022/09/26 00:01:25;;;;;;;7.35;4.38;;;;;;;10.06;96.19;100769.22;4969635;28;20066;-78
2022/09/26 00:03:57;;;;;;;8.55;4.22;;;;;;;10.11;96.51;100759.19;4974794;28;20034;-77
2022/09/26 00:06:23;;;;;;;8.63;4.15;;;;;;;10.12;96.77;100758.22;4965757;28;20042;-77
2022/09/26 00:08:49;;;;;;;10.30;4.05;;;;;;;10.12;96.95;100750.44;4969758;28;20050;-77
2022/09/26 00:11:20;;;;;;;8.73;3.80;;;;;;;10.10;97.38;100753.19;4980737;28;20065;-77
2022/09/26 00:13:46;;;;;;;5.97;3.08;;;;;;;10.11;97.90;100739.28;4981546;28;20038;-77
2022/09/26 00:16:13;;;;;;;8.48;4.03;;;;;;;10.13;97.92;100732.16;4980375;28;20038;-78
2022/09/26 00:18:39;;;;;;;9.57;3.90;;;;;;;10.16;97.78;100725.84;4965819;28;20523;-77
2022/09/26 00:21:07;;;;;;;6.28;3.47;;;;;;;10.19;97.72;100730.72;4977573;28;20046;-78
2022/09/26 00:23:33;;;;;;;8.85;3.78;;;;;;;10.19;97.79;100719.53;4980296;28;20097;-76
2022/09/26 00:25:59;;;;;;;11.27;4.18;;;;;;;10.32;97.88;100714.75;4965012;28;20042;-77
2022/09/26 00:28:26;;;;;;;11.80;4.80;;;;;;;10.30;97.93;100711.47;4966648;28;20034;-77
2022/09/26 00:30:51;;;;;;;9.32;4.38;;;;;;;10.33;97.77;100708.63;4981439;28;20534;-78
2022/09/26 00:33:17;;;;;;;8.52;3.90;;;;;;;10.30;98.04;100699.38;4965155;28;20108;-76
2022/09/26 00:35:53;;;;;;;8.57;4.43;;;;;;;10.27;98.17;100694.47;4974759;28;20045;-78
2022/09/26 00:38:19;;;;;;;11.48;4.50;;;;;;;10.43;98.24;100693.75;4979989;28;20062;-77
2022/09/26 00:40:45;;;;;;;7.25;4.03;;;;;;;10.39;97.96;100691.63;4984025;28;20026;-77
2022/09/26 00:43:46;;;;;;;10.07;4.60;;;;;;;10.37;98.12;100688.38;4984112;28;20096;-79
2022/09/26 00:46:24;;;;;;;8.93;4.70;;;;;;;10.41;98.38;100687.09;4978286;28;20050;-77
2022/09/26 00:49:24;;;;;;;12.98;4.45;;;;;;;10.38;97.94;100677.88;4984520;28;20031;-76
2022/09/26 00:51:55;;;;;;;11.35;4.10;;;;;;;10.37;98.14;100678.03;4969077;28;20058;-78
2022/09/26 00:54:21;;;;;;;7.50;4.40;;;;;;;10.40;97.95;100672.53;5001543;28;20069;-78
2022/09/26 00:56:49;;;;;;;10.70;4.50;;;;;;;10.41;97.42;100669.75;4969958;28;20038;-78
2022/09/26 00:59:28;;;;;;;6.28;3.92;;;;;;;10.43;97.57;100667.81;4964576;28;20026;-79
2022/09/26 01:01:56;;;;;;;9.00;5.03;;;;;;;10.52;96.79;100671.25;4982101;28;20030;-78
2022/09/26 01:04:26;;;;;;;9.13;4.53;;;;;;;10.49;96.86;100674.16;4982263;28;20034;-77
2022/09/26 01:06:56;;;;;;;12.45;5.47;;;;;;;10.49;97.37;100661.19;4970357;28;20118;-78
2022/09/26 01:09:22;;;;;;;8.25;4.35;;;;;;;10.49;97.49;100663.78;4987284;28;20053;-77
2022/09/26 01:11:47;;;;;;;8.73;4.70;;;;;;;10.50;97.64;100660.22;4987980;28;20027;-77
2022/09/26 01:14:18;;;;;;;10.95;5.55;;;;;;;10.55;97.18;100652.78;4986716;28;20029;-76
2022/09/26 01:16:47;;;;;;;10.85;4.80;;;;;;;10.50;97.82;100655.84;4970284;28;20125;-77
2022/09/26 01:19:41;;;;;;;11.65;5.13;;;;;;;10.45;98.46;100645.16;4967984;28;20081;-78
2022/09/26 01:22:13;;;;;;;;;;;;;;;10.53;98.40;100646.97;4985803;28;20042;-78
2022/09/26 01:25:08;;;;;;;13.13;4.97;;;;;;;10.55;98.53;100632.06;4985093;28;20323;-77
2022/09/26 01:27:37;;;;;;;10.52;5.53;;;;;;;10.54;98.80;100630.41;4964999;28;20036;-78
2022/09/26 01:30:02;;;;;;;9.48;4.97;;;;;;;10.56;98.83;100636.25;4969750;28;20523;-78
2022/09/26 01:32:50;;;;;;;9.80;5.20;;;;;;;10.58;99.07;100630.91;4988404;28;20674;-78
2022/09/26 01:35:50;;;;;;;12.70;5.30;;;;;;;10.47;99.33;100624.25;4982103;28;20038;-77
2022/09/26 01:38:25;;;;;;;14.98;5.57;;;;;;;10.45;99.85;100623.59;4986564;28;20041;-77
2022/09/26 01:41:19;;;;;;;11.98;5.50;;;;;;;10.61;99.08;100630.59;4988660;28;20045;-76
2022/09/26 01:44:04;;;;;;;;;;;;;;;10.52;99.48;100632.38;4985163;28;20133;-77
2022/09/26 01:46:41;;;;;;;10.20;5.70;;;;;;;10.65;98.81;100627.50;5003037;28;20341;-76
2022/09/26 01:49:42;;;;;;;9.05;5.85;;;;;;;10.61;99.56;100626.22;4970625;28;20101;-77
2022/09/26 01:52:26;;;;;;;10.75;6.38;;;;;;;10.69;99.13;100620.22;5001097;28;20480;-78
2022/09/26 01:54:51;;;;;;;12.50;6.35;;;;;;;10.61;99.29;100615.84;4984068;28;20059;-77
2022/09/26 01:57:26;;;;;;;13.73;6.20;;;;;;;10.67;99.05;100611.81;4981205;28;20145;-77
2022/09/26 01:59:57;;;;;;;18.88;6.82;;;;;;;10.68;98.63;100610.81;4988509;28;20323;-77
2022/09/26 02:02:27;;;;;;;16.85;6.28;;;;;;;10.60;99.16;100603.84;4970625;28;20476;-78
2022/09/26 02:04:59;;;;;;;10.27;6.15;;;;;;;10.62;99.03;100599.31;4969167;28;20560;-76
2022/09/26 02:07:58;;;;;;;11.30;6.65;;;;;;;10.55;99.29;100582.78;5000013;28;20022;-76
2022/09/26 02:10:29;;;;;;;9.95;6.20;;;;;;;10.55;99.42;100581.97;4970316;28;20138;-77
2022/09/26 02:13:01;;;;;;;14.00;6.65;;;;;;;10.56;99.91;100568.84;5002504;28;20046;-76
2022/09/26 02:15:33;;;;;;;13.10;7.15;;;;;;;10.57;100.00;100557.50;4985824;28;20030;-76
2022/09/26 02:18:13;;;;;;;14.98;7.65;;;;;;;10.62;99.60;100562.19;4968888;28;20077;-77
2022/09/26 02:20:50;;;;;;;13.80;7.43;;;;;;;10.65;99.66;100562.69;4991825;28;20041;-76
2022/09/26 02:23:16;;;;;;;14.07;7.43;;;;;;;10.60;99.54;100567.53;4966299;28;20720;-77
2022/09/26 02:25:41;;;;;;;12.68;7.82;;;;;;;10.56;99.96;100555.88;4986478;28;20030;-79
2022/09/26 02:28:07;;;;;;;17.95;8.95;;;;;;;10.58;99.99;100556.53;4967785;28;20122;-78
2022/09/26 02:30:33;;;;;;;17.50;8.05;;;;;;;10.62;99.86;100542.25;4970361;28;20479;-78
2022/09/26 02:32:59;;;;;;;10.75;7.38;;;;;;;10.60;99.78;100540.81;4986454;28;20054;-77
2022/09/26 02:38:10;;;;;;;14.15;7.75;;;;;;;10.63;99.66;100530.13;4984123;28;20492;-76
2022/09/26 02:40:50;;;;;;;14.93;8.82;;;;;;;10.59;99.78;100524.47;4967133;28;20035;-77
2022/09/26 02:43:27;;;;;;;15.10;8.57;;;;;;;10.69;99.26;100517.31;4968308;28;20616;-76
2022/09/26 02:46:25;;;;;;;16.65;7.82;;;;;;;10.77;99.36;100519.06;4968727;28;20034;-78
2022/09/26 02:49:07;;;;;;;13.10;7.55;;;;;;;10.66;98.88;100503.84;4969991;28;20074;-77
2022/09/26 02:52:08;;;;;;;12.43;7.18;;;;;;;10.68;98.73;100505.31;4986050;28;20022;-79
2022/09/26 02:55:11;;;;;;;12.40;7.30;;;;;;;10.67;98.56;100493.31;4968496;28;20048;-78
2022/09/26 02:58:04;;;;;;;11.20;6.70;;;;;;;10.61;99.12;100488.81;4983171;28;20030;-76
2022/09/26 03:00:44;;;;;;;12.80;7.60;;;;;;;10.55;99.41;100481.69;4969192;28;20034;-79
2022/09/26 03:03:21;;;;;;;13.18;6.97;;;;;;;10.59;99.45;100475.19;4982381;28;20038;-77
2022/09/26 03:05:52;;;;;;;15.57;7.20;;;;;;;10.67;99.03;100471.78;4981036;28;20447;-79
2022/09/26 03:08:23;;;;;;;11.88;7.00;;;;;;;10.65;98.70;100465.94;4968879;28;20076;-76
2022/09/26 03:10:51;;;;;;;12.95;7.28;;;;;;;10.68;98.71;100461.25;4986737;28;20034;-78
2022/09/26 03:13:18;;;;;;;11.43;7.30;;;;;;;10.67;99.01;100462.22;4984757;28;20113;-79
2022/09/26 03:15:50;;;;;;;12.65;6.97;;;;;;;10.69;98.78;100457.66;4968744;28;20448;-77
2022/09/26 03:18:21;;;;;;;15.68;6.50;;;;;;;10.67;98.55;100446.66;4970934;28;20157;-77
2022/09/26 03:20:47;;;;;;;13.75;6.28;;;;;;;10.61;98.68;100449.91;4984824;28;20996;-77
2022/09/26 03:23:13;;;;;;;16.23;6.95;;;;;;;10.68;98.49;100440.50;4979909;28;20050;-77
2022/09/26 03:25:40;;;;;;;10.20;5.93;;;;;;;10.65;98.13;100438.22;4986974;28;20029;-77
2022/09/26 03:28:11;;;;;;;11.68;6.65;;;;;;;10.56;99.09;100425.44;4981209;28;20480;-76
2022/09/26 03:30:38;;;;;;;17.05;6.32;;;;;;;10.56;98.82;100425.44;4980201;28;20035;-78
2022/09/26 03:33:20;;;;;;;11.52;5.95;;;;;;;10.55;99.01;100424.66;4980389;28;20086;-79
2022/09/26 03:35:46;;;;;;;11.60;6.07;;;;;;;10.66;97.91;100428.66;4984593;28;20640;-78
2022/09/26 03:38:12;;;;;;;12.07;5.57;;;;;;;10.55;98.07;100419.47;4982409;28;20038;-78
2022/09/26 03:40:41;;;;;;;10.73;5.78;;;;;;;10.48;98.54;100419.28;4965749;28;20680;-77
2022/09/26 03:43:27;;;;;;;10.18;5.60;;;;;;;10.53;98.31;100424.00;4984683;28;20038;-78
2022/09/26 03:45:54;;;;;;;8.25;5.30;;;;;;;10.51;98.22;100426.75;4984536;28;20034;-77
2022/09/26 03:48:24;;;;;;;13.95;5.75;;;;;;;10.55;97.90;100419.47;4985287;28;20026;-76
2022/09/26 03:50:49;;;;;;;14.68;5.72;;;;;;;10.50;97.76;100412.16;4978665;28;20038;-77
2022/09/26 03:53:15;;;;;;;10.05;5.82;;;;;;;10.59;97.72;100409.56;4978824;28;20035;-77
2022/09/26 03:55:40;;;;;;;11.88;6.30;;;;;;;10.57;97.07;100396.78;4985801;28;20030;-78
2022/09/26 03:58:06;;;;;;;10.95;6.03;;;;;;;10.64;96.07;100402.09;4982030;28;20041;-76
2022/09/26 04:00:38;;;;;;;10.52;6.22;;;;;;;10.62;96.43;100393.66;4985728;28;20062;-78
2022/09/26 04:03:04;;;;;;;12.50;5.40;;;;;;;10.61;96.23;100389.47;4968825;28;20395;-77
2022/09/26 04:05:37;;;;;;;12.63;6.13;;;;;;;10.62;95.63;100376.31;4982206;28;20022;-77
2022/09/26 04:08:04;;;;;;;11.45;6.28;;;;;;;10.59;95.43;100378.47;4968144;28;20510;-76
2022/09/26 04:10:30;;;;;;;12.00;5.28;;;;;;;10.49;96.06;100369.09;4965737;28;20061;-77
2022/09/26 04:12:56;;;;;;;9.30;5.53;;;;;;;10.51;95.84;100380.09;4982272;28;20038;-77
2022/09/26 04:15:23;;;;;;;11.77;5.47;;;;;;;10.47;96.24;100370.19;4983699;28;20406;-77
2022/09/26 04:17:56;;;;;;;10.68;6.15;;;;;;;10.46;96.13;100363.41;4989027;28;20077;-78
2022/09/26 04:20:23;;;;;;;23.02;7.85;;;;;;;10.52;95.50;100363.53;4982405;28;20170;-78
2022/09/26 04:22:48;;;;;;;13.90;5.57;;;;;;;10.49;95.61;100350.09;4965823;28;20399;-76
2022/09/26 04:25:15;;;;;;;13.85;5.38;;;;;;;10.43;95.91;100343.81;4970443;28;20033;-78
2022/09/26 04:27:41;;;;;;;11.82;5.15;;;;;;;10.49;95.46;100342.34;4968295;28;20972;-77
2022/09/26 04:30:07;;;;;;;11.13;5.15;;;;;;;10.56;94.44;100338.09;4978897;28;20482;-77
2022/09/26 04:32:36;;;;;;;13.15;5.18;;;;;;;10.54;94.16;100328.88;5000424;28;20109;-77
2022/09/26 04:35:37;;;;;;;18.65;5.13;;;;;;;10.49;94.57;100327.59;4984313;28;20070;-77
2022/09/26 04:38:04;;;;;;;16.70;5.75;;;;;;;10.58;93.75;100325.78;4985861;28;20116;-76
2022/09/26 04:40:31;;;;;;;15.00;5.53;;;;;;;10.41;94.16;100326.81;4969665;28;20050;-76
2022/09/26 04:43:08;;;;;;;12.38;5.55;;;;;;;10.37;94.23;100309.97;4984869;28;20038;-77
2022/09/26 04:45:33;;;;;;;12.20;5.15;;;;;;;10.31;94.47;100312.25;4983307;28;20613;-77
2022/09/26 04:47:59;;;;;;;16.60;5.47;;;;;;;10.29;94.04;100303.81;4988205;28;20486;-77
2022/09/26 04:50:25;;;;;;;14.43;5.75;;;;;;;10.25;94.81;100302.53;4984332;28;20041;-76
2022/09/26 04:53:08;;;;;;;13.13;5.28;;;;;;;10.25;94.20;100301.72;4983189;28;20411;-77
2022/09/26 04:55:43;;;;;;;10.57;4.70;;;;;;;10.25;93.70;100299.13;5001680;28;20030;-76
2022/09/26 04:58:09;;;;;;;15.73;5.25;;;;;;;10.30;93.76;100289.06;4983212;28;20053;-77
2022/09/26 05:00:35;;;;;;;14.20;4.82;;;;;;;10.33;93.17;100286.19;4981112;28;20026;-77
2022/09/26 05:03:03;;;;;;;11.20;4.93;;;;;;;10.36;92.84;100280.66;4983576;28;20097;-76
2022/09/26 05:05:30;;;;;;;9.10;3.92;;;;;;;10.37;92.53;100278.88;4977721;28;20134;-77
2022/09/26 05:07:56;;;;;;;10.18;4.63;;;;;;;10.37;92.88;100273.69;4995664;28;20086;-77
2022/09/26 05:10:23;;;;;;;11.10;4.30;;;;;;;10.30;92.83;100273.50;4963225;28;20582;-77
2022/09/26 05:12:57;;;;;;;11.23;4.50;;;;;;;10.34;92.53;100267.06;4984047;28;20038;-76
2022/09/26 05:15:22;;;;;;;11.43;4.18;;;;;;;10.31;92.57;100263.03;4983948;28;20038;-77
2022/09/26 05:17:54;;;;;;;11.68;4.43;;;;;;;10.29;92.60;100261.53;4971449;28;20093;-78
2022/09/26 05:20:22;;;;;;;10.85;4.22;;;;;;;10.38;91.68;100257.16;4981920;28;20026;-77
2022/09/26 05:22:58;;;;;;;16.60;4.30;;;;;;;10.32;91.54;100256.03;4966560;28;20459;-77
2022/09/26 05:28:09;;;;;;;12.32;3.42;;;;;;;10.26;91.06;100243.72;4981183;28;20031;-77
2022/09/26 05:30:35;;;;;;;9.52;3.88;;;;;;;10.29;90.67;100238.22;4983213;28;20205;-76
2022/09/26 05:33:01;;;;;;;10.65;4.35;;;;;;;10.30;90.64;100243.28;4980461;28;20431;-77
2022/09/26 05:35:26;;;;;;;9.93;3.45;;;;;;;10.31;90.22;100238.91;4983064;28;20400;-77
2022/09/26 05:38:02;;;;;;;10.38;3.92;;;;;;;10.42;89.90;100232.53;4969238;28;20130;-76
2022/09/26 05:43:15;;;;;;;9.23;3.45;;;;;;;10.47;87.90;100235.41;4981382;28;20034;-78
2022/09/26 05:45:41;;;;;;;9.30;3.35;;;;;;;10.49;88.06;100220.50;4977820;28;20031;-77
2022/09/26 05:48:08;;;;;;;10.15;3.70;;;;;;;10.36;88.32;100228.84;4983088;28;20034;-77
2022/09/26 05:50:36;;;;;;;9.07;3.33;;;;;;;10.37;88.46;100217.47;4968663;28;20454;-76
2022/09/26 05:53:03;;;;;;;8.98;3.72;;;;;;;10.33;88.40;100227.38;4986813;28;20034;-77
2022/09/26 05:55:29;;;;;;;11.32;3.38;;;;;;;10.28;88.26;100221.03;4971859;28;20985;-78
2022/09/26 05:58:17;;;;;;;12.20;3.97;;;;;;;10.44;88.52;100209.84;4985101;28;20057;-78
2022/09/26 06:01:13;;;;;;;12.30;4.10;;;;;;;10.41;88.10;100218.75;4985508;28;20057;-77
2022/09/26 06:03:45;;;;;;;7.72;3.80;;;;;;;10.47;87.05;100215.50;4981375;28;20155;-77
2022/09/26 06:06:19;;;;;;;14.02;3.88;;;;;;;10.46;86.73;100200.91;4981676;28;20027;-76
2022/09/26 06:08:46;;;;;;;8.77;3.13;;;;;;;10.52;87.25;100199.44;4988708;28;20037;-76
2022/09/26 06:11:31;;;;;;;12.02;4.05;;;;;;;10.46;87.45;100192.34;4973632;28;20050;-80
2022/09/26 06:14:01;;;;;;;17.08;4.20;;;;;;;10.50;86.21;100188.44;4982178;28;20019;-78
2022/09/26 06:16:27;;;;;;;12.20;3.97;;;;;;;10.55;86.61;100180.13;4986660;28;20430;-78
2022/09/26 06:18:54;;;;;;;15.50;4.20;;;;;;;10.49;87.25;100184.22;4969768;28;20038;-78
2022/09/26 06:21:21;;;;;;;10.43;4.15;;;;;;;10.51;86.78;100179.69;4982086;28;20034;-77
2022/09/26 06:23:50;;;;;;;13.25;6.15;;;;;;;10.57;87.24;100176.41;4985562;28;20034;-78
2022/09/26 06:26:20;;;;;;;12.27;4.95;;;;;;;10.60;86.62;100167.47;4998258;28;20038;-78
2022/09/26 06:28:46;;;;;;;10.65;3.90;;;;;;;10.54;86.93;100160.38;4965689;28;20027;-76
2022/09/26 06:31:14;;;;;;;13.15;4.97;;;;;;;10.67;87.16;100161.41;4972220;28;20092;-77
2022/09/26 06:34:00;;;;;;;11.55;4.57;;;;;;;10.56;87.12;100154.03;4986996;28;20049;-76
2022/09/26 06:36:40;;;;;;;20.58;10.38;;;;;;;10.64;87.54;100142.81;4972426;28;20041;-77
2022/09/26 06:39:06;;;;;;;18.42;5.55;;;;;;;10.60;86.39;100142.34;4988724;28;20038;-80
2022/09/26 06:41:34;;;;;;;25.35;10.25;;;;;;;10.65;86.83;100137.47;4970932;28;20039;-77
2022/09/26 06:44:07;;;;;;;20.73;8.02;;;;;;;10.66;86.44;100139.09;4965690;28;20057;-77
2022/09/26 06:46:46;;;;;;;18.00;6.40;;;;;;;10.57;86.96;100131.50;4987017;28;20026;-77
2022/09/26 06:49:14;;;;;;;32.65;12.23;;;;;;;10.57;87.23;100129.75;4966783;28;20038;-79
2022/09/26 06:52:01;;;;;;;24.30;10.52;;;;;;;10.63;87.33;100131.63;4999796;28;20034;-80
2022/09/26 06:54:26;;;;;;;19.80;7.50;;;;;;;10.61;87.10;100120.63;4969628;28;20538;-79
2022/09/26 06:56:52;;;;;;;21.48;4.97;;;;;;;10.62;87.40;100119.63;4971078;28;20043;-79
2022/09/26 06:59:17;;;;;;;18.63;5.35;;;;;;;10.67;87.06;100119.13;4980757;28;20046;-75
2022/09/26 07:01:50;;;;;;;;;;;;;;;10.67;87.24;100121.72;4984015;28;20030;-78
2022/09/26 07:04:38;;;;;;;17.23;5.35;;;;;;;10.77;87.17;100117.09;4985673;28;19941;-76
2022/09/26 07:07:12;;;;;;;18.80;4.85;;;;;;;10.73;88.58;100115.84;4984708;28;20142;-77
2022/09/26 07:09:39;;;;;;;22.63;6.95;;;;;;;10.63;89.90;100115.28;4985862;28;20113;-78
2022/09/26 07:12:14;;;;;;;22.23;9.45;;;;;;;10.71;89.09;100110.81;4981445;28;20041;-77
2022/09/26 07:14:41;;;;;;;21.42;8.93;;;;;;;10.76;89.69;100102.53;4970921;28;20036;-77
2022/09/26 07:17:26;;;;;;;19.13;5.15;;;;;;;10.67;88.96;100091.41;4984142;28;20122;-78
2022/09/26 07:20:24;;;;;;;12.90;3.30;;;;;;;10.61;89.96;100084.34;4980533;28;20514;-77
2022/09/26 07:23:04;;;;;;;;;;;;;;;10.66;90.31;100081.22;4981729;28;20069;-78
2022/09/26 07:25:30;;;;;;;8.48;2.83;;;;;;;10.62;90.81;100083.34;4984010;28;19917;-78
2022/09/26 07:27:56;;;;;;;13.57;4.63;;;;;;;10.59;93.48;100078.53;4973225;28;20062;-78
2022/09/26 07:30:32;;;;;;;8.80;4.10;;;;;;;10.64;93.30;100078.81;4987184;28;20387;-79
2022/09/26 07:33:04;;;;;;;28.67;13.70;;;;;;;10.60;93.44;100074.13;4983788;28;20050;-76
2022/09/26 07:35:43;;;;;;;13.98;5.93;;;;;;;10.67;94.36;100070.69;4985341;28;20123;-78
2022/09/26 07:38:09;;;;;;;10.98;3.30;;;;;;;10.64;92.56;100078.81;4990132;28;20614;-79
2022/09/26 07:40:34;;;;;;;16.15;5.40;;;;;;;10.52;94.08;100075.81;4975048;28;20030;-78
2022/09/26 07:43:01;;;;;;;13.32;5.05;;;;;;;10.52;94.65;100057.66;4986194;28;20084;-77
2022/09/26 07:51:15;;;;;;;8.70;3.03;;;;;;;10.59;94.07;100064.75;4987468;28;21894;-77
2022/09/26 07:53:44;;;;;;;9.73;3.00;;;;;;;10.60;92.60;100059.38;4970022;28;20462;-76
2022/09/26 07:56:33;;;;;;;12.18;3.08;;;;;;;10.66;93.17;100055.28;4984914;28;20041;-76
2022/09/26 07:59:20;;;;;;;9.85;2.90;;;;;;;10.57;93.44;100054.56;4982656;28;20042;-77
2022/09/26 08:02:03;;;;;;;12.50;2.53;;;;;;;10.46;92.24;100042.81;4975553;28;20045;-77
2022/09/26 08:04:32;;;;;;;11.30;3.15;;;;;;;10.56;92.64;100039.19;4985580;28;20113;-76
2022/09/26 08:07:00;;;;;;;6.60;2.78;;;;;;;10.51;92.25;100035.31;4986349;28;20045;-77
2022/09/26 08:09:25;;;;;;;8.40;2.38;;;;;;;10.57;90.85;100026.03;4969923;28;20030;-75
2022/09/26 08:12:34;;;;;;;7.25;1.90;;;;;;;10.54;91.20;100028.19;4983161;28;20038;-76
2022/09/26 08:15:25;;;;;;;4.97;2.30;;;;;;;10.44;91.55;100018.84;4984159;28;20030;-76
2022/09/26 08:18:02;;;;;;;8.70;2.42;;;;;;;10.47;91.15;100018.50;4969201;28;20022;-76
2022/09/26 08:20:28;;;;;;;8.35;2.05;;;;;;;10.47;91.17;100015.94;4983072;28;20034;-77
2022/09/26 08:22:54;;;;;;;3.63;1.90;;;;;;;10.59;91.44;100012.91;4968320;28;20100;-76
2022/09/26 08:25:20;;;;;;;8.60;3.05;;;;;;;10.56;91.08;100006.28;4986054;28;20113;-79
2022/09/26 08:27:57;;;;;;;13.05;4.93;;;;;;;10.52;91.71;100011.00;4972539;28;20129;-81
2022/09/26 08:30:24;;;;;;;4.25;1.80;;;;;;;10.65;91.27;100007.81;4983936;28;20112;-76
2022/09/26 08:33:00;;;;;;;7.28;1.92;;;;;;;10.60;91.25;100007.53;4970146;28;20089;-77
2022/09/26 08:35:37;;;;;;;3.20;1.60;;;;;;;10.55;91.63;100011.63;5001376;28;20037;-79
2022/09/26 08:38:35;;;;;;;6.78;1.48;;;;;;;10.54;92.19;100010.84;4978269;28;20443;-78
2022/09/26 08:42:22;;;;;;;5.00;1.80;;;;;;;10.55;93.57;100009.88;4961199;28;20444;-76
2022/09/26 08:49:08;;;;;;;6.60;2.05;;;;;;;10.61;94.39;100006.56;4985732;28;20048;-79
2022/09/26 08:51:39;;;;;;;8.10;2.30;;;;;;;10.67;94.81;100007.66;4985637;28;20034;-76
2022/09/26 08:54:24;;;;;;;7.45;2.17;;;;;;;10.63;94.61;100009.78;4986102;28;20046;-79
2022/09/26 08:56:56;;;;;;;8.32;1.92;;;;;;;10.64;94.48;100005.41;4966720;28;20061;-78
2022/09/26 08:59:22;;;;;;;8.70;2.75;;;;;;;10.68;95.06;100004.88;4986302;28;20464;-78
2022/09/26 09:01:51;;;;;;;5.30;1.83;;;;;;;10.71;94.85;100001.13;4968496;28;20168;-78
2022/09/26 09:04:30;;;;;;;6.80;1.90;;;;;;;10.73;95.95;99999.16;4970057;28;20492;-78
2022/09/26 09:07:06;;;;;;;6.85;2.30;;;;;;;10.71;95.04;99991.56;4973869;28;20049;-78
2022/09/26 09:09:32;;;;;;;7.13;1.98;;;;;;;10.81;95.34;99990.50;4980987;28;20027;-77
2022/09/26 09:12:25;;;;;;;7.03;2.72;;;;;;;10.82;94.71;99999.91;4985343;28;20034;-77
2022/09/26 09:15:25;;;;;;;5.25;1.77;;;;;;;10.85;94.57;99981.38;4987749;28;20042;-77
2022/09/26 09:18:42;;;;;;;6.57;1.77;;;;;;;10.96;95.02;99975.75;4984266;28;20496;-78
2022/09/26 09:21:26;;;;;;;9.05;2.03;;;;;;;10.85;96.06;99973.59;4984642;28;20030;-79
2022/09/26 09:24:22;;;;;;;6.88;1.83;;;;;;;10.77;95.82;99966.69;4986133;28;20492;-76
2022/09/26 09:27:03;;;;;;;5.00;1.80;;;;;;;10.78;95.23;99965.72;4979642;28;20085;-78
2022/09/26 09:29:44;;;;;;;5.43;2.00;;;;;;;10.85;95.29;99958.88;4972049;28;20030;-78
2022/09/26 09:32:47;;;;;;;4.35;2.00;;;;;;;10.78;95.53;99959.75;4979014;28;20038;-79
2022/09/26 09:35:30;;;;;;;9.43;2.50;;;;;;;10.94;95.71;99959.56;4974210;28;20022;-78
2022/09/26 09:38:06;;;;;;;8.38;2.15;;;;;;;10.96;94.98;99955.00;4977662;28;20570;-76
2022/09/26 09:41:18;;;;;;;6.55;2.00;;;;;;;10.95;95.20;99950.81;4980655;28;20104;-78
2022/09/26 09:43:57;;;;;;;7.82;1.67;;;;;;;11.09;94.43;99944.00;4965996;28;20058;-76
2022/09/26 09:46:31;;;;;;;6.93;2.00;;;;;;;11.18;94.91;99944.72;4983581;28;20022;-77
2022/09/26 09:49:08;;;;;;;12.02;1.80;;;;;;;11.34;94.67;99933.31;4980929;28;20660;-77
2022/09/26 09:51:53;;;;;;;6.60;1.70;;;;;;;11.33;93.81;99937.72;4982637;28;20030;-77
2022/09/26 09:54:27;;;;;;;4.80;1.50;;;;;;;11.33;93.17;99931.72;4986003;28;20053;-78
2022/09/26 09:57:44;;;;;;;6.97;2.15;;;;;;;11.34;93.03;99920.34;4985969;28;20741;-80
2022/09/26 10:00:14;;;;;;;9.20;2.47;;;;;;;11.40;91.83;99906.66;4981877;28;20142;-77
2022/09/26 10:03:25;;;;;;;5.47;1.60;;;;;;;11.40;91.55;99899.66;4976870;28;20038;-76
2022/09/26 10:06:01;;;;;;;4.97;1.52;;;;;;;11.52;92.20;99892.19;4984340;28;20049;-76
2022/09/26 10:08:41;;;;;;;5.32;1.67;;;;;;;11.49;90.75;99898.56;4984642;28;20120;-77
2022/09/26 10:11:46;;;;;;;4.03;2.03;;;;;;;11.62;90.48;99889.28;4936214;28;20412;-78
2022/09/26 10:14:39;;;;;;;5.63;1.48;;;;;;;11.68;90.53;99891.16;4933793;29;20555;-78
2022/09/26 10:17:07;;;;;;;7.82;1.50;;;;;;;11.76;90.47;99885.06;4971617;28;20542;-77
2022/09/26 10:19:42;;;;;;;7.55;1.45;;;;;;;11.96;90.70;99887.84;4986470;28;20410;-77
2022/09/26 10:22:41;;;;;;;6.93;2.00;;;;;;;11.96;90.71;99880.88;4963809;28;20058;-76
2022/09/26 10:25:21;;;;;;;4.75;2.22;;;;;;;11.98;88.68;99871.09;4970145;28;20030;-78
2022/09/26 10:27:53;;;;;;;7.35;1.98;;;;;;;12.11;89.28;99875.59;4982351;28;20463;-77
2022/09/26 10:30:27;;;;;;;5.10;1.90;;;;;;;12.14;87.70;99879.59;4968202;28;20395;-75
2022/09/26 10:33:02;;;;;;;5.75;1.27;;;;;;;12.18;85.99;99866.03;4971561;28;20585;-79
2022/09/26 10:35:46;;;;;;;4.72;1.58;;;;;;;12.21;86.78;99865.66;4985923;28;20037;-77
2022/09/26 10:38:23;;;;;;;4.80;2.20;;;;;;;12.20;87.40;99869.25;4985532;28;20053;-74
2022/09/26 10:41:00;;;;;;;5.68;1.77;;;;;;;12.34;87.00;99856.34;4983135;28;20026;-76
2022/09/26 10:43:36;;;;;;;5.70;1.40;;;;;;;12.39;86.11;99839.16;4966226;28;20057;-77
2022/09/26 10:46:24;;;;;;;4.93;1.40;;;;;;;12.35;86.01;99837.16;4982239;28;20030;-77
2022/09/26 10:49:12;;;;;;;9.70;2.20;;;;;;;12.37;85.43;99828.16;4986115;28;20505;-78
2022/09/26 10:52:02;;;;;;;6.38;1.38;;;;;;;12.39;84.87;99835.78;4985557;28;20068;-79
2022/09/26 10:54:44;;;;;;;3.80;1.58;;;;;;;12.41;84.81;99823.38;4972429;28;20503;-76
2022/09/26 10:57:18;;;;;;;5.85;1.90;;;;;;;12.45;83.73;99815.03;4970398;28;20041;-75
2022/09/26 10:59:46;;;;;;;7.85;2.15;;;;;;;12.46;84.31;99813.22;4998551;28;20026;-78
2022/09/26 11:02:20;;;;;;;9.00;3.05;;;;;;;12.52;84.48;99816.84;4965167;28;20034;-81
2022/09/26 11:08:09;;;;;;;3.55;1.52;;;;;;;12.65;83.68;99809.09;5002166;28;20022;-79
2022/09/26 11:10:47;;;;;;;8.45;2.50;;;;;;;12.75;82.74;99803.53;4986154;28;20104;-76
2022/09/26 11:14:02;;;;;;;3.63;1.33;;;;;;;12.81;82.62;99792.38;4981104;28;20042;-78
2022/09/26 11:16:47;;;;;;;5.85;1.55;;;;;;;12.90;81.27;99785.97;4979885;28;20038;-77
2022/09/26 11:19:21;;;;;;;9.63;2.00;;;;;;;13.09;81.88;99791.44;4970323;28;20065;-81
2022/09/26 11:21:57;;;;;;;10.18;2.10;;;;;;;13.18;80.20;99787.66;5000980;28;20030;-80
2022/09/26 11:24:41;;;;;;;9.63;1.30;;;;;;;13.13;78.16;99780.47;4999301;28;20038;-79
2022/09/26 11:27:32;;;;;;;3.35;1.10;;;;;;;13.26;78.13;99761.47;4985805;28;20125;-77
2022/09/26 11:30:12;;;;;;;5.53;1.70;;;;;;;13.41;78.51;99762.09;4981968;28;20034;-81
2022/09/26 11:32:46;;;;;;;3.67;1.27;;;;;;;13.45;77.35;99754.69;4968807;28;20038;-79
2022/09/26 11:35:51;;;;;;;4.22;1.42;;;;;;;13.27;77.36;99742.22;4986200;28;20053;-81
2022/09/26 11:38:45;;;;;;;1.83;1.00;;;;;;;13.44;77.12;99734.84;4969874;28;20042;-80
2022/09/26 11:41:35;;;;;;;;;;;;;;;13.43;76.96;99744.47;4980461;28;20070;-79
2022/09/26 11:44:25;;;;;;;6.60;1.20;;;;;;;13.40;76.83;99733.66;4969816;28;19918;-80
2022/09/26 11:47:38;;;;;;;8.38;1.52;;;;;;;13.39;78.24;99729.44;4984901;28;20104;-77
2022/09/26 11:50:41;;;;;;;6.15;1.38;;;;;;;13.39;79.94;99737.25;4969840;28;20026;-78
2022/09/26 11:53:51;;;;;;;4.30;1.02;;;;;;;13.29;81.32;99742.03;4971290;28;20095;-77
2022/09/26 11:56:51;;;;;;;5.93;1.30;;;;;;;13.11;81.09;99733.00;4986674;28;20034;-81
2022/09/26 11:59:47;;;;;;;6.28;1.70;;;;;;;13.09;82.38;99729.81;4985549;28;20431;-78
2022/09/26 12:02:54;;;;;;;8.13;1.70;;;;;;;13.12;83.82;99731.19;4983549;28;20035;-78
2022/09/26 12:05:24;;;;;;;6.53;2.88;;;;;;;13.14;84.84;99734.41;4978786;28;20034;-79
2022/09/26 12:08:07;;;;;;;7.80;1.70;;;;;;;13.19;84.32;99732.03;4972931;28;20695;-78
2022/09/26 12:10:55;;;;;;;7.88;2.05;;;;;;;13.05;85.69;99736.38;5001649;28;20115;-76
2022/09/26 12:13:28;;;;;;;3.83;1.35;;;;;;;12.97;85.73;99736.56;4969994;28;20034;-76
2022/09/26 12:16:05;;;;;;;6.25;1.15;;;;;;;12.97;85.91;99734.78;4985166;28;20125;-77
2022/09/26 12:18:42;;;;;;;7.43;1.40;;;;;;;12.85;85.85;99733.75;4971676;28;20042;-78
2022/09/26 12:21:20;;;;;;;5.07;1.20;;;;;;;12.87;85.12;99729.16;4966493;28;20065;-78
2022/09/26 12:23:54;;;;;;;5.30;1.65;;;;;;;12.75;86.26;99715.09;4971387;28;20042;-77
2022/09/26 12:26:27;;;;;;;5.50;1.17;;;;;;;12.73;86.37;99717.91;4978919;28;20141;-79
2022/09/26 12:29:10;;;;;;;6.78;1.30;;;;;;;12.66;88.00;99711.91;4984743;28;20050;-77